createdAt,value
2022-12-05T00:00:24.297Z,99179.88
2022-12-05T00:01:42.147Z,99183.44
2022-12-05T00:02:48.451Z,99179.88
2022-12-05T00:03:52.827Z,99178.59
2022-12-05T00:04:55.115Z,99180.16
2022-12-05T00:05:57.358Z,99169.69
2022-12-05T00:06:59.522Z,99172.13
2022-12-05T00:08:01.849Z,99178.88
2022-12-05T00:09:05.931Z,99172.72
2022-12-05T00:10:08.715Z,99171.06
2022-12-05T00:11:16.438Z,99178.44
2022-12-05T00:12:19.338Z,99174.28
2022-12-05T00:13:21.619Z,99177.00
2022-12-05T00:14:23.849Z,99178.66
2022-12-05T00:15:26.106Z,99172.44
2022-12-05T00:16:33.699Z,99179.13
2022-12-05T00:17:35.975Z,99182.53
2022-12-05T00:18:47.937Z,99176.38
2022-12-05T00:19:55.189Z,99180.03
2022-12-05T00:20:59.070Z,99190.81
2022-12-05T00:22:01.299Z,99187.59
2022-12-05T00:23:03.480Z,99198.16
2022-12-05T00:24:07.607Z,99195.69
2022-12-05T00:25:10.197Z,99191.44
2022-12-05T00:26:12.773Z,99183.72
2022-12-05T00:27:15.006Z,99194.81
2022-12-05T00:28:17.310Z,99194.66
2022-12-05T00:29:19.594Z,99208.72
2022-12-05T00:30:21.806Z,99188.91
2022-12-05T00:31:26.300Z,99193.91
2022-12-05T00:32:29.605Z,99200.09
2022-12-05T00:33:31.939Z,99192.41
2022-12-05T00:34:34.109Z,99195.69
2022-12-05T00:35:36.386Z,99198.31
2022-12-05T00:36:38.826Z,99185.13
2022-12-05T00:37:41.102Z,99197.97
2022-12-05T00:38:44.002Z,99195.72
2022-12-05T00:39:46.248Z,99196.66
2022-12-05T00:40:48.393Z,99197.38
2022-12-05T00:41:50.583Z,99195.59
2022-12-05T00:42:52.772Z,99197.13
2022-12-05T00:43:57.901Z,99204.19
2022-12-05T00:45:00.131Z,99192.69
2022-12-05T00:46:07.981Z,99198.06
2022-12-05T00:47:10.358Z,99192.19
2022-12-05T00:48:12.555Z,99191.25
2022-12-05T00:49:14.832Z,99194.81
2022-12-05T00:50:17.137Z,99196.31
2022-12-05T00:51:23.303Z,99191.09
2022-12-05T00:52:26.616Z,99198.00
2022-12-05T00:53:28.978Z,99199.03
2022-12-05T00:54:31.166Z,99204.31
2022-12-05T00:55:37.280Z,99205.38
2022-12-05T00:56:39.883Z,99200.91
2022-12-05T00:57:42.045Z,99193.88
2022-12-05T00:58:44.719Z,99207.78
2022-12-05T00:59:46.943Z,99209.41
2022-12-05T01:00:49.164Z,99208.41
2022-12-05T01:01:51.930Z,99208.56
2022-12-05T01:02:55.246Z,99211.13
2022-12-05T01:03:59.451Z,99198.91
2022-12-05T01:05:01.624Z,99202.56
2022-12-05T01:06:06.091Z,99201.63
2022-12-05T01:07:08.330Z,99199.84
2022-12-05T01:08:10.534Z,99205.84
2022-12-05T01:09:15.594Z,99197.28
2022-12-05T01:10:17.841Z,99199.84
2022-12-05T01:11:20.370Z,99198.88
2022-12-05T01:12:22.571Z,99199.06
2022-12-05T01:13:25.996Z,99205.97
2022-12-05T01:14:28.439Z,99199.13
2022-12-05T01:15:30.618Z,99198.16
2022-12-05T01:16:35.612Z,99202.44
2022-12-05T01:17:38.071Z,99202.44
2022-12-05T01:18:40.392Z,99216.16
2022-12-05T01:19:42.563Z,99210.13
2022-12-05T01:20:45.693Z,99215.22
2022-12-05T01:21:48.054Z,99214.44
2022-12-05T01:22:50.260Z,99212.63
2022-12-05T01:23:52.664Z,99209.09
2022-12-05T01:24:54.855Z,99207.47
2022-12-05T01:25:57.038Z,99207.75
2022-12-05T01:26:59.266Z,99209.38
2022-12-05T01:28:01.476Z,99220.59
2022-12-05T01:29:04.471Z,99217.13
2022-12-05T01:30:07.243Z,99215.59
2022-12-05T01:31:17.974Z,99223.19
2022-12-05T01:32:20.315Z,99222.38
2022-12-05T01:33:22.614Z,99237.03
2022-12-05T01:34:25.000Z,99244.66
2022-12-05T01:35:27.230Z,99242.28
2022-12-05T01:36:30.068Z,99246.75
2022-12-05T01:37:32.297Z,99244.84
2022-12-05T01:38:34.602Z,99244.06
2022-12-05T01:39:36.784Z,99248.41
2022-12-05T01:40:39.577Z,99254.28
2022-12-05T01:41:45.469Z,99239.72
2022-12-05T01:42:47.987Z,99238.31
2022-12-05T01:44:00.849Z,99245.25
2022-12-05T01:45:21.074Z,99240.97
2022-12-05T01:46:23.807Z,99239.34
2022-12-05T01:47:29.090Z,99237.47
2022-12-05T01:48:35.880Z,99243.25
2022-12-05T01:49:41.182Z,99242.47
2022-12-05T01:50:44.050Z,99237.47
2022-12-05T01:51:49.870Z,99226.84
2022-12-05T01:52:52.092Z,99239.78
2022-12-05T01:53:54.361Z,99235.38
2022-12-05T01:55:02.609Z,99239.84
2022-12-05T01:56:05.722Z,99228.63
2022-12-05T01:57:11.493Z,99243.44
2022-12-05T01:58:14.123Z,99241.72
2022-12-05T01:59:19.215Z,99244.91
2022-12-05T02:01:41.443Z,99247.38
2022-12-05T02:02:52.616Z,99249.94
2022-12-05T02:03:58.355Z,99249.84
2022-12-05T02:05:09.015Z,99243.06
2022-12-05T02:06:13.059Z,99242.19
2022-12-05T02:07:15.355Z,99243.94
2022-12-05T02:08:18.000Z,99239.56
2022-12-05T02:09:20.899Z,99239.34
2022-12-05T02:10:23.324Z,99238.47
2022-12-05T02:11:27.976Z,99237.44
2022-12-05T02:12:30.157Z,99237.34
2022-12-05T02:13:38.477Z,99239.75
2022-12-05T02:14:59.721Z,99243.47
2022-12-05T02:16:31.349Z,99253.06
2022-12-05T02:17:54.207Z,99260.91
2022-12-05T02:19:16.614Z,99259.94
2022-12-05T02:20:35.655Z,99261.91
2022-12-05T02:22:07.417Z,99269.56
2022-12-05T02:23:34.258Z,99268.66
2022-12-05T02:25:05.233Z,99274.00
2022-12-05T02:26:45.823Z,99274.63
2022-12-05T02:27:53.686Z,99271.28
2022-12-05T02:29:26.081Z,99280.81
2022-12-05T02:30:54.320Z,99285.25
2022-12-05T02:32:10.220Z,99287.78
2022-12-05T02:33:27.548Z,99277.19
2022-12-05T02:34:55.397Z,99278.25
2022-12-05T02:36:07.214Z,99277.34
2022-12-05T02:37:38.940Z,99273.16
2022-12-05T02:38:41.102Z,99281.81
2022-12-05T02:39:54.642Z,99274.19
2022-12-05T02:41:24.422Z,99275.88
2022-12-05T02:42:33.145Z,99279.31
2022-12-05T02:43:48.241Z,99281.81
2022-12-05T02:44:57.200Z,99278.31
2022-12-05T02:46:06.654Z,99273.91
2022-12-05T02:47:12.768Z,99274.94
2022-12-05T02:48:17.710Z,99274.25
2022-12-05T02:49:26.919Z,99279.38
2022-12-05T02:50:36.466Z,99283.53
2022-12-05T02:51:43.908Z,99278.44
2022-12-05T02:52:49.269Z,99281.72
2022-12-05T02:53:52.878Z,99292.13
2022-12-05T02:54:56.230Z,99279.34
2022-12-05T02:55:59.022Z,99281.81
2022-12-05T02:57:01.692Z,99286.22
2022-12-05T02:58:08.487Z,99291.19
2022-12-05T02:59:10.830Z,99302.38
2022-12-05T03:00:13.492Z,99298.22
2022-12-05T03:01:16.363Z,99292.25
2022-12-05T03:02:31.183Z,99300.69
2022-12-05T03:03:34.476Z,99300.78
2022-12-05T03:04:37.514Z,99304.22
2022-12-05T03:05:51.533Z,99302.41
2022-12-05T03:06:57.924Z,99306.47
2022-12-05T03:08:02.040Z,99297.06
2022-12-05T03:09:09.018Z,99302.38
2022-12-05T03:10:14.575Z,99301.47
2022-12-05T03:11:16.767Z,99300.56
2022-12-05T03:12:26.008Z,99295.31
2022-12-05T03:13:35.595Z,99294.44
2022-12-05T03:15:14.997Z,99291.66
2022-12-05T03:16:23.713Z,99302.03
2022-12-05T03:17:31.749Z,99306.34
2022-12-05T03:18:41.862Z,99308.16
2022-12-05T03:20:11.953Z,99315.16
2022-12-05T03:21:29.197Z,99310.03
2022-12-05T03:22:46.642Z,99319.63
2022-12-05T03:23:53.952Z,99315.34
2022-12-05T03:24:56.217Z,99312.66
2022-12-05T03:26:12.150Z,99309.25
2022-12-05T03:27:25.616Z,99317.00
2022-12-05T03:28:58.726Z,99322.19
2022-12-05T03:30:08.730Z,99312.72
2022-12-05T03:31:14.404Z,99317.84
2022-12-05T03:32:35.046Z,99312.59
2022-12-05T03:33:44.561Z,99320.25
2022-12-05T03:34:49.561Z,99319.63
2022-12-05T03:36:03.339Z,99317.94
2022-12-05T03:37:12.615Z,99309.09
2022-12-05T03:38:45.262Z,99313.47
2022-12-05T03:39:54.998Z,99309.00
2022-12-05T03:41:14.622Z,99300.50
2022-12-05T03:42:27.476Z,99306.44
2022-12-05T03:43:51.656Z,99314.88
2022-12-05T03:45:01.497Z,99301.97
2022-12-05T03:46:16.115Z,99301.84
2022-12-05T03:48:09.534Z,99284.22
2022-12-05T03:49:26.956Z,99276.28
2022-12-05T03:50:37.434Z,99287.50
2022-12-05T03:52:14.661Z,99298.81
2022-12-05T03:53:26.005Z,99293.81
2022-12-05T03:54:52.452Z,99297.34
2022-12-05T03:56:08.392Z,99304.41
2022-12-05T03:57:49.643Z,99308.81
2022-12-05T03:59:02.477Z,99303.56
2022-12-05T04:00:11.543Z,99310.34
2022-12-05T04:01:16.622Z,99314.97
2022-12-05T04:02:33.583Z,99310.78
2022-12-05T04:03:42.621Z,99320.22
2022-12-05T04:04:55.172Z,99314.19
2022-12-05T04:05:59.678Z,99304.63
2022-12-05T04:07:05.695Z,99300.50
2022-12-05T04:08:17.822Z,99323.94
2022-12-05T04:09:34.999Z,99308.31
2022-12-05T04:10:48.701Z,99309.94
2022-12-05T04:11:57.534Z,99305.53
2022-12-05T04:13:17.704Z,99301.22
2022-12-05T04:14:53.615Z,99292.69
2022-12-05T04:16:20.902Z,99304.09
2022-12-05T04:17:34.827Z,99311.88
2022-12-05T04:18:42.537Z,99313.47
2022-12-05T04:20:11.714Z,99301.22
2022-12-05T04:21:33.884Z,99311.66
2022-12-05T04:22:37.586Z,99306.47
2022-12-05T04:23:44.813Z,99305.72
2022-12-05T04:25:10.172Z,99305.00
2022-12-05T04:26:27.202Z,99309.34
2022-12-05T04:27:39.199Z,99298.09
2022-12-05T04:28:51.675Z,99310.06
2022-12-05T04:30:04.835Z,99315.34
2022-12-05T04:31:16.083Z,99317.06
2022-12-05T04:32:20.989Z,99313.56
2022-12-05T04:33:41.195Z,99315.22
2022-12-05T04:34:50.381Z,99316.06
2022-12-05T04:35:59.276Z,99317.94
2022-12-05T04:37:06.954Z,99322.41
2022-12-05T04:38:15.710Z,99323.16
2022-12-05T04:39:27.190Z,99325.78
2022-12-05T04:40:44.469Z,99320.72
2022-12-05T04:42:09.151Z,99314.44
2022-12-05T04:43:14.479Z,99320.69
2022-12-05T04:44:23.988Z,99330.19
2022-12-05T04:45:26.742Z,99331.06
2022-12-05T04:46:28.969Z,99323.22
2022-12-05T04:47:36.414Z,99327.59
2022-12-05T04:48:42.715Z,99334.56
2022-12-05T04:49:49.310Z,99329.25
2022-12-05T04:50:57.730Z,99324.97
2022-12-05T04:52:04.000Z,99330.06
2022-12-05T04:53:08.635Z,99330.00
2022-12-05T04:54:20.329Z,99322.19
2022-12-05T04:55:29.491Z,99333.34
2022-12-05T04:56:36.665Z,99334.50
2022-12-05T04:58:10.924Z,99330.97
2022-12-05T04:59:13.153Z,99333.66
2022-12-05T05:00:15.698Z,99329.16
2022-12-05T05:01:25.107Z,99332.53
2022-12-05T05:02:37.919Z,99330.75
2022-12-05T05:03:45.889Z,99329.94
2022-12-05T05:04:51.400Z,99327.53
2022-12-05T05:05:56.490Z,99328.34
2022-12-05T05:06:58.698Z,99333.53
2022-12-05T05:08:01.070Z,99336.13
2022-12-05T05:09:03.924Z,99331.84
2022-12-05T05:10:06.875Z,99334.44
2022-12-05T05:11:19.877Z,99338.56
2022-12-05T05:12:22.113Z,99328.16
2022-12-05T05:13:24.642Z,99335.91
2022-12-05T05:14:26.840Z,99327.22
2022-12-05T05:15:29.107Z,99334.13
2022-12-05T05:16:34.771Z,99335.03
2022-12-05T05:17:37.087Z,99333.56
2022-12-05T05:18:39.253Z,99336.16
2022-12-05T05:19:41.476Z,99337.81
2022-12-05T05:20:43.747Z,99339.63
2022-12-05T05:21:45.954Z,99339.63
2022-12-05T05:22:49.113Z,99342.94
2022-12-05T05:23:51.962Z,99338.63
2022-12-05T05:24:54.117Z,99340.28
2022-12-05T05:25:56.829Z,99335.91
2022-12-05T05:26:59.083Z,99333.34
2022-12-05T05:28:01.496Z,99341.97
2022-12-05T05:29:04.648Z,99335.78
2022-12-05T05:30:07.476Z,99336.72
2022-12-05T05:31:09.870Z,99343.69
2022-12-05T05:32:12.113Z,99349.84
2022-12-05T05:33:14.351Z,99344.69
2022-12-05T05:34:16.654Z,99346.47
2022-12-05T05:35:18.992Z,99349.00
2022-12-05T05:36:23.433Z,99359.28
2022-12-05T05:37:25.672Z,99360.19
2022-12-05T05:38:27.841Z,99355.97
2022-12-05T05:39:30.001Z,99359.50
2022-12-05T05:40:35.859Z,99356.13
2022-12-05T05:41:38.081Z,99358.78
2022-12-05T05:42:44.878Z,99357.94
2022-12-05T05:43:47.660Z,99361.38
2022-12-05T05:44:50.117Z,99351.91
2022-12-05T05:45:52.307Z,99362.31
2022-12-05T05:46:54.774Z,99362.25
2022-12-05T05:47:57.111Z,99361.31
2022-12-05T05:48:59.678Z,99364.72
2022-12-05T05:50:01.940Z,99362.22
2022-12-05T05:51:06.583Z,99358.78
2022-12-05T05:52:08.795Z,99363.06
2022-12-05T05:53:10.920Z,99357.84
2022-12-05T05:54:13.129Z,99353.53
2022-12-05T05:55:15.355Z,99352.59
2022-12-05T05:56:21.718Z,99350.66
2022-12-05T05:57:24.457Z,99344.44
2022-12-05T05:58:26.630Z,99347.94
2022-12-05T05:59:28.908Z,99349.75
2022-12-05T06:00:31.086Z,99348.94
2022-12-05T06:01:33.339Z,99356.72
2022-12-05T06:02:36.595Z,99360.84
2022-12-05T06:03:39.736Z,99363.41
2022-12-05T06:04:42.168Z,99361.91
2022-12-05T06:05:48.710Z,99358.59
2022-12-05T06:06:53.802Z,99362.19
2022-12-05T06:07:56.165Z,99357.81
2022-12-05T06:08:58.466Z,99369.06
2022-12-05T06:10:01.361Z,99370.81
2022-12-05T06:11:08.732Z,99364.72
2022-12-05T06:12:10.944Z,99375.13
2022-12-05T06:13:13.157Z,99382.84
2022-12-05T06:14:15.386Z,99389.66
2022-12-05T06:15:17.662Z,99388.56
2022-12-05T06:16:21.231Z,99395.38
2022-12-05T06:17:23.630Z,99391.09
2022-12-05T06:18:25.866Z,99391.97
2022-12-05T06:19:28.362Z,99398.06
2022-12-05T06:20:30.672Z,99388.50
2022-12-05T06:21:32.853Z,99393.66
2022-12-05T06:22:35.116Z,99394.41
2022-12-05T06:23:39.328Z,99397.88
2022-12-05T06:24:41.515Z,99386.56
2022-12-05T06:25:48.684Z,99394.50
2022-12-05T06:26:50.973Z,99396.38
2022-12-05T06:27:53.154Z,99398.13
2022-12-05T06:28:55.372Z,99398.22
2022-12-05T06:29:58.291Z,99393.06
2022-12-05T06:31:06.304Z,99393.09
2022-12-05T06:32:09.123Z,99397.47
2022-12-05T06:33:12.281Z,99399.31
2022-12-05T06:34:14.579Z,99404.50
2022-12-05T06:35:16.761Z,99400.09
2022-12-05T06:36:21.579Z,99403.41
2022-12-05T06:37:23.798Z,99405.84
2022-12-05T06:38:25.989Z,99415.31
2022-12-05T06:39:28.271Z,99406.75
2022-12-05T06:40:30.450Z,99408.63
2022-12-05T06:41:33.590Z,99415.47
2022-12-05T06:42:35.851Z,99415.38
2022-12-05T06:43:38.029Z,99410.38
2022-12-05T06:44:40.671Z,99394.63
2022-12-05T06:45:42.943Z,99398.22
2022-12-05T06:46:45.234Z,99395.47
2022-12-05T06:47:47.644Z,99404.06
2022-12-05T06:48:56.312Z,99406.56
2022-12-05T06:49:58.805Z,99396.38
2022-12-05T06:51:01.285Z,99397.31
2022-12-05T06:52:03.559Z,99401.66
2022-12-05T06:53:05.768Z,99395.69
2022-12-05T06:54:07.931Z,99400.72
2022-12-05T06:55:10.535Z,99398.13
2022-12-05T06:56:19.553Z,99395.50
2022-12-05T06:57:21.822Z,99399.66
2022-12-05T06:58:24.658Z,99405.81
2022-12-05T06:59:26.878Z,99406.50
2022-12-05T07:00:47.367Z,99413.53
2022-12-05T07:01:50.258Z,99414.44
2022-12-05T07:02:53.103Z,99416.25
2022-12-05T07:03:55.321Z,99426.53
2022-12-05T07:04:57.623Z,99425.56
2022-12-05T07:06:04.023Z,99429.09
2022-12-05T07:07:06.561Z,99434.41
2022-12-05T07:08:08.787Z,99426.47
2022-12-05T07:09:11.513Z,99423.03
2022-12-05T07:10:13.726Z,99439.47
2022-12-05T07:11:15.949Z,99436.00
2022-12-05T07:12:19.387Z,99440.41
2022-12-05T07:13:22.223Z,99439.53
2022-12-05T07:14:46.406Z,99438.56
2022-12-05T07:15:48.376Z,99450.59
2022-12-05T07:16:51.532Z,99442.69
2022-12-05T07:17:53.929Z,99453.16
2022-12-05T07:18:56.463Z,99453.25
2022-12-05T07:19:59.103Z,99453.16
2022-12-05T07:21:14.361Z,99450.53
2022-12-05T07:22:18.222Z,99453.16
2022-12-05T07:23:20.469Z,99456.56
2022-12-05T07:24:22.707Z,99454.56
2022-12-05T07:25:24.978Z,99453.78
2022-12-05T07:26:27.360Z,99466.03
2022-12-05T07:27:29.652Z,99456.44
2022-12-05T07:28:32.675Z,99459.03
2022-12-05T07:29:35.048Z,99463.38
2022-12-05T07:30:37.366Z,99461.88
2022-12-05T07:31:39.679Z,99458.47
2022-12-05T07:32:41.929Z,99462.09
2022-12-05T07:33:44.691Z,99467.34
2022-12-05T07:34:49.739Z,99463.88
2022-12-05T07:36:04.573Z,99461.91
2022-12-05T07:37:06.828Z,99465.31
2022-12-05T07:38:09.148Z,99466.97
2022-12-05T07:39:11.341Z,99467.91
2022-12-05T07:40:14.059Z,99468.09
2022-12-05T07:41:24.885Z,99462.19
2022-12-05T07:42:27.093Z,99466.50
2022-12-05T07:43:29.313Z,99469.84
2022-12-05T07:44:31.666Z,99469.16
2022-12-05T07:45:35.709Z,99469.13
2022-12-05T07:46:38.933Z,99472.50
2022-12-05T07:47:41.338Z,99467.25
2022-12-05T07:48:43.596Z,99475.03
2022-12-05T07:49:45.769Z,99479.31
2022-12-05T07:50:47.972Z,99468.94
2022-12-05T07:51:50.236Z,99472.59
2022-12-05T07:52:52.917Z,99475.09
2022-12-05T07:53:55.264Z,99475.19
2022-12-05T07:54:58.569Z,99470.00
2022-12-05T07:56:02.768Z,99475.09
2022-12-05T07:57:04.980Z,99475.69
2022-12-05T07:58:07.704Z,99474.56
2022-12-05T07:59:09.990Z,99472.66
2022-12-05T08:00:12.887Z,99473.69
2022-12-05T08:01:18.656Z,99476.47
2022-12-05T08:02:21.121Z,99479.22
2022-12-05T08:03:23.496Z,99474.91
2022-12-05T08:04:25.889Z,99477.31
2022-12-05T08:05:28.243Z,99473.78
2022-12-05T08:06:31.383Z,99473.72
2022-12-05T08:07:33.821Z,99468.63
2022-12-05T08:08:36.586Z,99473.03
2022-12-05T08:09:38.860Z,99471.38
2022-12-05T08:10:41.129Z,99471.38
2022-12-05T08:11:48.175Z,99472.94
2022-12-05T08:12:53.431Z,99471.72
2022-12-05T08:13:56.494Z,99463.97
2022-12-05T08:14:58.727Z,99464.78
2022-12-05T08:16:05.786Z,99469.91
2022-12-05T08:17:08.131Z,99469.91
2022-12-05T08:18:10.501Z,99470.72
2022-12-05T08:19:13.474Z,99481.25
2022-12-05T08:20:15.842Z,99471.09
2022-12-05T08:21:19.712Z,99478.91
2022-12-05T08:22:22.012Z,99474.56
2022-12-05T08:23:24.226Z,99478.28
2022-12-05T08:24:26.464Z,99477.22
2022-12-05T08:25:28.866Z,99469.38
2022-12-05T08:26:32.238Z,99482.31
2022-12-05T08:27:34.514Z,99482.19
2022-12-05T08:28:37.721Z,99476.81
2022-12-05T08:29:39.977Z,99479.34
2022-12-05T08:30:42.168Z,99481.09
2022-12-05T08:31:47.407Z,99482.78
2022-12-05T08:32:49.805Z,99486.47
2022-12-05T08:33:57.295Z,99488.16
2022-12-05T08:35:01.577Z,99489.69
2022-12-05T08:36:06.264Z,99485.13
2022-12-05T08:37:08.499Z,99488.72
2022-12-05T08:38:10.898Z,99485.34
2022-12-05T08:39:15.995Z,99497.47
2022-12-05T08:40:18.635Z,99492.22
2022-12-05T08:41:20.873Z,99500.97
2022-12-05T08:42:23.076Z,99487.25
2022-12-05T08:43:25.296Z,99498.66
2022-12-05T08:44:27.509Z,99501.19
2022-12-05T08:45:29.827Z,99495.31
2022-12-05T08:46:34.291Z,99500.38
2022-12-05T08:47:36.684Z,99507.28
2022-12-05T08:48:39.325Z,99515.94
2022-12-05T08:49:41.510Z,99512.47
2022-12-05T08:50:43.759Z,99509.91
2022-12-05T08:51:46.233Z,99512.63
2022-12-05T08:52:48.479Z,99512.50
2022-12-05T08:53:50.802Z,99515.09
2022-12-05T08:54:52.982Z,99519.50
2022-12-05T08:55:55.188Z,99521.41
2022-12-05T08:56:57.520Z,99521.38
2022-12-05T08:57:59.732Z,99519.56
2022-12-05T08:59:06.156Z,99523.91
2022-12-05T09:00:08.974Z,99527.47
2022-12-05T09:01:17.141Z,99524.88
2022-12-05T09:02:19.479Z,99532.78
2022-12-05T09:03:21.744Z,99525.78
2022-12-05T09:04:23.954Z,99529.25
2022-12-05T09:05:28.637Z,99528.34
2022-12-05T09:06:32.396Z,99518.88
2022-12-05T09:07:34.643Z,99529.19
2022-12-05T09:08:37.880Z,99523.88
2022-12-05T09:09:40.077Z,99535.16
2022-12-05T09:10:42.447Z,99533.25
2022-12-05T09:11:50.679Z,99537.56
2022-12-05T09:12:52.864Z,99534.84
2022-12-05T09:13:57.578Z,99548.88
2022-12-05T09:15:00.200Z,99548.88
2022-12-05T09:16:07.974Z,99547.88
2022-12-05T09:17:10.183Z,99548.69
2022-12-05T09:18:12.650Z,99556.44
2022-12-05T09:19:24.806Z,99551.06
2022-12-05T09:20:27.028Z,99556.31
2022-12-05T09:21:30.999Z,99556.28
2022-12-05T09:22:33.670Z,99555.34
2022-12-05T09:23:36.277Z,99555.31
2022-12-05T09:24:38.478Z,99558.75
2022-12-05T09:25:40.723Z,99559.53
2022-12-05T09:26:43.024Z,99563.03
2022-12-05T09:27:45.206Z,99564.88
2022-12-05T09:28:48.244Z,99563.94
2022-12-05T09:29:50.364Z,99565.66
2022-12-05T09:31:01.707Z,99565.75
2022-12-05T09:32:04.201Z,99556.09
2022-12-05T09:33:06.630Z,99561.16
2022-12-05T09:34:09.331Z,99570.78
2022-12-05T09:35:11.690Z,99567.22
2022-12-05T09:36:39.802Z,99572.34
2022-12-05T09:37:42.088Z,99570.84
2022-12-05T09:38:44.927Z,99577.00
2022-12-05T09:39:47.227Z,99574.31
2022-12-05T09:41:41.594Z,99584.78
2022-12-05T09:42:49.360Z,99577.84
2022-12-05T09:44:02.962Z,99577.84
2022-12-05T09:45:10.883Z,99583.16
2022-12-05T09:46:39.573Z,99585.59
2022-12-05T09:48:04.928Z,99579.53
2022-12-05T09:49:11.004Z,99583.00
2022-12-05T09:50:28.030Z,99585.66
2022-12-05T09:51:31.090Z,99572.50
2022-12-05T09:52:38.596Z,99586.44
2022-12-05T09:53:43.449Z,99576.03
2022-12-05T09:54:45.988Z,99569.75
2022-12-05T09:55:57.219Z,99578.56
2022-12-05T09:56:59.975Z,99575.69
2022-12-05T09:58:05.416Z,99577.47
2022-12-05T09:59:13.704Z,99574.94
2022-12-05T10:00:17.002Z,99569.84
2022-12-05T10:01:46.056Z,99577.69
2022-12-05T10:03:06.856Z,99570.88
2022-12-05T10:05:01.810Z,99577.81
2022-12-05T10:06:24.137Z,99580.31
2022-12-05T10:07:41.022Z,99570.78
2022-12-05T10:09:01.467Z,99585.47
2022-12-05T10:10:24.678Z,99574.22
2022-12-05T10:11:44.443Z,99567.31
2022-12-05T10:13:13.275Z,99579.44
2022-12-05T10:14:54.355Z,99573.09
2022-12-05T10:16:03.098Z,99579.13
2022-12-05T10:17:23.778Z,99578.31
2022-12-05T10:18:51.017Z,99580.88
2022-12-05T10:19:58.047Z,99585.16
2022-12-05T10:21:09.027Z,99580.66
2022-12-05T10:22:20.416Z,99582.63
2022-12-05T10:23:55.553Z,99579.16
2022-12-05T10:30:58.664Z,99580.16
2022-12-05T10:32:13.306Z,99580.28
2022-12-05T10:33:21.287Z,99575.91
2022-12-05T10:34:31.708Z,99581.19
2022-12-05T10:35:39.616Z,99581.09
2022-12-05T10:36:54.975Z,99568.81
2022-12-05T10:37:59.849Z,99578.31
2022-12-05T10:39:06.929Z,99582.44
2022-12-05T10:40:13.284Z,99581.56
2022-12-05T10:41:15.492Z,99585.09
2022-12-05T10:42:28.045Z,99584.16
2022-12-05T10:43:32.559Z,99578.84
2022-12-05T10:44:35.022Z,99588.41
2022-12-05T10:45:43.107Z,99583.31
2022-12-05T10:46:45.810Z,99584.34
2022-12-05T10:47:49.508Z,99583.44
2022-12-05T10:48:51.774Z,99578.25
2022-12-05T10:49:58.111Z,99585.88
2022-12-05T10:51:00.881Z,99577.44
2022-12-05T10:52:03.927Z,99579.09
2022-12-05T10:53:07.034Z,99578.22
2022-12-05T10:54:20.752Z,99575.50
2022-12-05T10:55:23.357Z,99570.44
2022-12-05T10:56:45.427Z,99567.06
2022-12-05T10:58:10.357Z,99565.94
2022-12-05T10:59:21.738Z,99562.19
2022-12-05T11:00:30.271Z,99568.31
2022-12-05T11:01:36.924Z,99569.53
2022-12-05T11:02:40.671Z,99561.59
2022-12-05T11:03:43.733Z,99553.47
2022-12-05T11:04:46.139Z,99553.16
2022-12-05T11:05:50.734Z,99553.25
2022-12-05T11:06:59.544Z,99545.13
2022-12-05T11:08:01.820Z,99551.56
2022-12-05T11:09:16.800Z,99551.34
2022-12-05T11:10:37.611Z,99550.63
2022-12-05T11:11:40.169Z,99546.56
2022-12-05T11:12:42.399Z,99551.34
2022-12-05T11:13:59.430Z,99551.84
2022-12-05T11:15:10.720Z,99558.16
2022-12-05T11:16:24.652Z,99561.81
2022-12-05T11:17:31.647Z,99557.44
2022-12-05T11:18:35.035Z,99554.19
2022-12-05T11:19:38.146Z,99560.13
2022-12-05T11:20:41.169Z,99551.28
2022-12-05T11:21:43.798Z,99561.63
2022-12-05T11:23:23.067Z,99559.81
2022-12-05T11:24:29.409Z,99553.31
2022-12-05T11:25:34.826Z,99549.59
2022-12-05T11:26:37.743Z,99553.94
2022-12-05T11:27:40.007Z,99551.78
2022-12-05T11:28:42.196Z,99558.09
2022-12-05T11:29:53.621Z,99559.66
2022-12-05T11:30:57.534Z,99559.56
2022-12-05T11:32:00.259Z,99551.50
2022-12-05T11:33:19.238Z,99545.16
2022-12-05T11:34:27.944Z,99546.66
2022-12-05T11:35:30.175Z,99548.25
2022-12-05T11:36:44.372Z,99550.28
2022-12-05T11:37:54.495Z,99547.81
2022-12-05T11:38:58.346Z,99550.53
2022-12-05T11:40:02.361Z,99547.81
2022-12-05T11:41:17.151Z,99547.81
2022-12-05T11:42:23.635Z,99554.53
2022-12-05T11:43:39.667Z,99547.19
2022-12-05T11:44:57.448Z,99545.78
2022-12-05T11:46:15.260Z,99547.03
2022-12-05T11:47:20.163Z,99552.19
2022-12-05T11:48:27.955Z,99549.91
2022-12-05T11:49:38.762Z,99539.09
2022-12-05T11:50:52.755Z,99549.16
2022-12-05T11:52:23.211Z,99550.19
2022-12-05T11:53:56.121Z,99548.66
2022-12-05T11:55:22.180Z,99549.25
2022-12-05T11:56:27.654Z,99548.44
2022-12-05T11:57:35.633Z,99540.06
2022-12-05T11:58:53.000Z,99531.78
2022-12-05T12:00:15.200Z,99539.84
2022-12-05T12:01:56.092Z,99540.56
2022-12-05T12:03:16.660Z,99536.69
2022-12-05T12:04:41.710Z,99529.03
2022-12-05T12:06:04.883Z,99538.63
2022-12-05T12:07:25.027Z,99532.31
2022-12-05T12:08:44.104Z,99536.69
2022-12-05T12:10:18.409Z,99534.38
2022-12-05T12:11:46.790Z,99526.63
2022-12-05T12:13:24.229Z,99530.31
2022-12-05T12:14:50.941Z,99537.06
2022-12-05T12:16:02.729Z,99538.03
2022-12-05T12:17:34.622Z,99531.84
2022-12-05T12:18:48.602Z,99537.78
2022-12-05T12:20:34.984Z,99545.88
2022-12-05T12:22:00.529Z,99537.75
2022-12-05T12:23:27.632Z,99542.09
2022-12-05T12:24:47.850Z,99540.34
2022-12-05T12:26:20.359Z,99542.78
2022-12-05T12:27:56.759Z,99544.41
2022-12-05T12:29:17.158Z,99541.41
2022-12-05T12:30:28.560Z,99540.53
2022-12-05T12:31:39.593Z,99548.16
2022-12-05T12:33:03.352Z,99549.22
2022-12-05T12:34:05.489Z,99538.91
2022-12-05T12:35:30.498Z,99547.31
2022-12-05T12:36:42.942Z,99533.63
2022-12-05T12:38:01.065Z,99543.72
2022-12-05T12:39:10.325Z,99546.19
2022-12-05T12:40:18.150Z,99545.81
2022-12-05T12:41:46.291Z,99544.88
2022-12-05T12:43:52.250Z,99547.44
2022-12-05T12:45:23.478Z,99544.00
2022-12-05T12:46:48.648Z,99553.84
2022-12-05T12:47:59.232Z,99553.78
2022-12-05T12:49:24.548Z,99551.09
2022-12-05T12:50:38.850Z,99540.25
2022-12-05T12:51:54.627Z,99555.38
2022-12-05T12:53:08.638Z,99545.66
2022-12-05T12:54:34.179Z,99542.94
2022-12-05T12:56:04.990Z,99544.84
2022-12-05T12:57:24.056Z,99545.69
2022-12-05T12:58:35.312Z,99539.72
2022-12-05T13:00:24.318Z,99546.94
2022-12-05T13:01:48.054Z,99544.38
2022-12-05T13:03:00.356Z,99536.75
2022-12-05T13:04:28.471Z,99542.53
2022-12-05T13:05:41.559Z,99543.16
2022-12-05T13:06:56.061Z,99535.25
2022-12-05T13:08:14.314Z,99544.03
2022-12-05T13:09:26.957Z,99547.72
2022-12-05T13:10:37.854Z,99545.16
2022-12-05T13:11:44.390Z,99537.38
2022-12-05T13:12:47.361Z,99543.31
2022-12-05T13:13:57.096Z,99532.81
2022-12-05T13:15:06.205Z,99538.91
2022-12-05T13:16:12.891Z,99546.00
2022-12-05T13:17:18.966Z,99542.59
2022-12-05T13:18:25.331Z,99546.06
2022-12-05T13:19:42.298Z,99543.88
2022-12-05T13:20:49.217Z,99540.31
2022-12-05T13:21:53.435Z,99551.22
2022-12-05T13:22:56.152Z,99545.94
2022-12-05T13:24:03.325Z,99545.13
2022-12-05T13:25:05.950Z,99549.28
2022-12-05T13:26:11.121Z,99549.97
2022-12-05T13:27:17.572Z,99556.91
2022-12-05T13:28:30.513Z,99550.66
2022-12-05T13:30:01.332Z,99552.25
2022-12-05T13:31:05.730Z,99554.72